Time;durP1;ratioP1;P1;durP2;ratioP2;P2;SDS_P1;SDS_P2;PMS_P1;PMS_P2;Temp;Humidity;BMP_temperature;BMP_pressure;BME280_temperature;BME280_humidity;BME280_pressure;Samples;Min_cycle;Max_cycle;Signal;HPM_P1;HPM_P2
2021/12/29 00:01:44;;;;;;;5.78;2.38;;;;;;;;;;6267565;28;20021;-81
2021/12/29 00:04:45;;;;;;;6.15;2.22;;;9.50;99.90;;;;;;6245183;28;20399;-81
2021/12/29 00:07:45;;;;;;;9.45;2.88;;;9.60;99.90;;;;;;6224664;28;20029;-80
2021/12/29 00:10:47;;;;;;;7.57;2.63;;;9.60;99.90;;;;;;6215796;28;20438;-81
2021/12/29 00:13:47;;;;;;;7.10;2.10;;;9.60;99.90;;;;;;6222711;28;20035;-80
2021/12/29 00:16:48;;;;;;;5.82;2.22;;;9.60;99.90;;;;;;6231225;28;20025;-80
2021/12/29 00:19:48;;;;;;;7.15;2.47;;;9.60;99.90;;;;;;6233992;28;20376;-81
2021/12/29 00:22:49;;;;;;;9.05;2.58;;;9.60;99.90;;;;;;6212292;28;20060;-81
2021/12/29 00:25:50;;;;;;;8.48;2.50;;;9.60;99.90;;;;;;6198305;28;20041;-81
2021/12/29 00:28:50;;;;;;;8.70;3.13;;;9.60;99.90;;;;;;6217314;28;20135;-80
2021/12/29 00:31:51;;;;;;;7.20;2.90;;;9.60;99.90;;;;;;6216985;28;20462;-81
2021/12/29 00:34:51;;;;;;;9.85;2.58;;;9.60;99.90;;;;;;6215690;28;20104;-81
2021/12/29 00:37:52;;;;;;;6.13;2.20;;;9.60;99.90;;;;;;6210916;28;20050;-81
2021/12/29 00:40:53;;;;;;;7.47;2.15;;;9.60;99.90;;;;;;6211234;28;20108;-81
2021/12/29 00:43:55;;;;;;;5.07;2.10;;;9.30;99.90;;;;;;6227256;28;20059;-81
2021/12/29 00:46:56;;;;;;;6.13;2.10;;;9.30;99.90;;;;;;6238288;28;20068;-80
2021/12/29 00:49:59;;;;;;;5.90;2.17;;;;;;;;;;6197855;28;20087;-81
2021/12/29 00:52:59;;;;;;;5.80;2.47;;;9.80;99.90;;;;;;6227491;28;20067;-81
2021/12/29 00:56:00;;;;;;;6.13;2.28;;;9.70;99.90;;;;;;6210519;28;20025;-81
2021/12/29 00:59:01;;;;;;;6.47;2.50;;;;;;;;;;6217194;28;20479;-80
2021/12/29 01:02:02;;;;;;;9.23;2.80;;;9.50;99.90;;;;;;6227062;28;20028;-81
2021/12/29 01:05:04;;;;;;;8.20;2.50;;;9.50;99.90;;;;;;6211135;28;20433;-81
2021/12/29 01:08:05;;;;;;;5.87;2.30;;;;;;;;;;6236969;28;20041;-80
2021/12/29 01:11:06;;;;;;;14.35;2.95;;;9.60;99.90;;;;;;6233588;28;20072;-80
2021/12/29 01:14:07;;;;;;;7.43;2.95;;;9.60;99.90;;;;;;6221582;28;20033;-81
2021/12/29 01:17:08;;;;;;;8.88;2.80;;;10.60;99.90;;;;;;6210500;28;20570;-81
2021/12/29 01:20:10;;;;;;;8.43;3.10;;;9.50;99.90;;;;;;6226773;28;20037;-80
2021/12/29 01:23:10;;;;;;;8.98;2.80;;;9.50;99.90;;;;;;6212299;28;20063;-81
2021/12/29 01:26:11;;;;;;;9.32;3.00;;;9.50;99.90;;;;;;6197846;28;20033;-80
2021/12/29 01:29:12;;;;;;;6.35;2.22;;;9.50;99.90;;;;;;6225981;28;20494;-81
2021/12/29 01:32:12;;;;;;;9.20;3.30;;;10.20;99.90;;;;;;6213074;28;20112;-80
2021/12/29 01:35:13;;;;;;;7.45;2.50;;;9.50;99.90;;;;;;6209665;28;20452;-81
2021/12/29 01:38:14;;;;;;;11.02;3.30;;;9.50;99.90;;;;;;6216403;28;20049;-81
2021/12/29 01:41:15;;;;;;;10.40;2.55;;;9.50;99.90;;;;;;6195942;28;20068;-81
2021/12/29 01:44:16;;;;;;;6.68;3.05;;;9.50;99.90;;;;;;6233478;28;20033;-80
2021/12/29 01:47:27;;;;;;;8.80;2.67;;;9.70;99.90;;;;;;6205430;28;20487;-81
2021/12/29 01:50:30;;;;;;;7.38;2.38;;;9.50;99.90;;;;;;6208963;28;20133;-81
2021/12/29 01:53:32;;;;;;;6.43;2.65;;;9.60;99.90;;;;;;6210674;28;20025;-81
2021/12/29 01:56:33;;;;;;;6.15;2.35;;;9.40;99.90;;;;;;6207179;28;20387;-81
2021/12/29 01:59:35;;;;;;;8.60;2.90;;;9.50;99.90;;;;;;6224409;28;20041;-81
2021/12/29 02:02:36;;;;;;;6.90;2.20;;;9.50;99.90;;;;;;6221019;28;20384;-81
2021/12/29 02:05:37;;;;;;;9.43;2.42;;;10.00;99.90;;;;;;6210596;28;20060;-81
2021/12/29 02:08:38;;;;;;;5.07;2.10;;;9.60;99.90;;;;;;6222042;28;20029;-81
2021/12/29 02:11:41;;;;;;;2.95;2.05;;;9.50;99.90;;;;;;6224602;28;20593;-80
2021/12/29 02:14:41;;;;;;;7.45;2.40;;;9.60;99.90;;;;;;6222558;28;20033;-81
2021/12/29 02:17:42;;;;;;;9.77;3.08;;;9.50;99.90;;;;;;6232165;28;20056;-81
2021/12/29 02:20:45;;;;;;;8.52;2.45;;;9.50;99.90;;;;;;6214511;28;20037;-81
2021/12/29 02:24:03;;;;;;;9.52;3.25;;;9.50;99.90;;;;;;6214308;28;20060;-81
2021/12/29 02:27:05;;;;;;;7.13;2.47;;;10.00;99.90;;;;;;6219363;28;20025;-81
2021/12/29 02:30:06;;;;;;;5.80;1.87;;;9.50;99.90;;;;;;6198077;28;20099;-81
2021/12/29 02:33:07;;;;;;;6.22;2.20;;;9.60;99.90;;;;;;6198200;28;20116;-80
2021/12/29 02:36:07;;;;;;;8.60;2.47;;;9.50;99.90;;;;;;6235002;28;20055;-81
2021/12/29 02:39:08;;;;;;;8.27;2.35;;;10.30;99.90;;;;;;6221682;28;20049;-81
2021/12/29 02:42:10;;;;;;;7.53;2.95;;;9.70;99.90;;;;;;6239516;28;20032;-81
2021/12/29 02:45:14;;;;;;;9.85;2.90;;;9.60;99.90;;;;;;6204874;28;20105;-81
2021/12/29 02:48:15;;;;;;;8.93;2.55;;;9.50;99.90;;;;;;6245441;28;20066;-81
2021/12/29 02:51:16;;;;;;;7.13;2.55;;;9.80;99.90;;;;;;6201900;28;20048;-82
2021/12/29 02:54:17;;;;;;;7.80;2.35;;;9.80;99.90;;;;;;6228771;28;20021;-80
2021/12/29 02:57:17;;;;;;;3.75;2.00;;;9.80;99.90;;;;;;6233849;28;20068;-81
2021/12/29 03:00:18;;;;;;;7.07;2.10;;;9.50;99.90;;;;;;6233866;28;20539;-81
2021/12/29 03:03:21;;;;;;;7.68;2.05;;;9.60;99.90;;;;;;6230050;28;20025;-80
2021/12/29 03:06:21;;;;;;;9.13;2.95;;;9.60;99.90;;;;;;6237504;28;20036;-81
2021/12/29 03:09:22;;;;;;;5.07;2.53;;;9.50;99.90;;;;;;6231175;28;20037;-81
2021/12/29 03:12:22;;;;;;;6.25;2.10;;;9.50;99.90;;;;;;6226330;28;20116;-81
2021/12/29 03:15:23;;;;;;;13.30;3.10;;;9.50;99.90;;;;;;6234408;28;20029;-81
2021/12/29 03:18:24;;;;;;;6.93;2.83;;;9.50;99.90;;;;;;6217051;28;20033;-81
2021/12/29 03:21:24;;;;;;;6.78;2.10;;;9.50;99.90;;;;;;6231720;28;20033;-81
2021/12/29 03:24:25;;;;;;;6.43;2.53;;;10.20;99.90;;;;;;6236550;28;20155;-81
2021/12/29 03:27:25;;;;;;;8.40;2.83;;;9.50;99.90;;;;;;6223677;28;20033;-80
2021/12/29 03:30:31;;;;;;;5.90;2.05;;;9.60;99.90;;;;;;6205522;28;20029;-81
2021/12/29 03:33:33;;;;;;;7.30;2.20;;;9.50;99.90;;;;;;6216812;28;20025;-81
2021/12/29 03:36:33;;;;;;;11.52;2.75;;;9.50;99.90;;;;;;6233053;28;20195;-80
2021/12/29 03:39:38;;;;;;;9.13;2.55;;;9.40;99.90;;;;;;6249012;28;20422;-80
2021/12/29 03:42:39;;;;;;;7.13;2.45;;;9.90;99.90;;;;;;6203215;28;20119;-80
2021/12/29 03:45:41;;;;;;;9.95;2.50;;;9.40;99.90;;;;;;6235969;28;20025;-81
2021/12/29 03:48:43;;;;;;;5.07;2.63;;;9.40;99.90;;;;;;6225251;28;20018;-81
2021/12/29 03:51:43;;;;;;;8.68;2.67;;;10.60;99.90;;;;;;6223455;28;20088;-81
2021/12/29 03:54:44;;;;;;;4.72;2.40;;;9.40;99.90;;;;;;6201410;28;20029;-81
2021/12/29 03:57:45;;;;;;;6.93;2.50;;;9.40;99.90;;;;;;6224202;28;20061;-81
2021/12/29 04:00:47;;;;;;;9.70;2.80;;;9.30;99.90;;;;;;6223406;28;20466;-81
2021/12/29 04:03:47;;;;;;;9.02;2.70;;;9.50;99.90;;;;;;6245598;28;20112;-81
2021/12/29 04:06:48;;;;;;;9.13;2.63;;;9.40;99.90;;;;;;6210682;28;20398;-81
2021/12/29 04:09:49;;;;;;;6.13;2.03;;;9.30;99.90;;;;;;6220666;28;20095;-81
2021/12/29 04:12:49;;;;;;;7.97;2.28;;;9.40;99.90;;;;;;6217033;28;20033;-81
2021/12/29 04:15:50;;;;;;;5.07;2.08;;;9.00;99.90;;;;;;6202465;28;20468;-81
2021/12/29 04:19:13;;;;;;;6.50;2.42;;;9.30;99.90;;;;;;6221755;28;20025;-81
2021/12/29 04:22:14;;;;;;;5.90;2.25;;;9.10;99.90;;;;;;6217267;28;20045;-81
2021/12/29 04:25:15;;;;;;;5.47;2.20;;;9.50;99.90;;;;;;6215438;28;20037;-81
2021/12/29 04:28:20;;;;;;;6.25;2.47;;;9.20;99.90;;;;;;6218245;28;20033;-81
2021/12/29 04:31:20;;;;;;;8.73;2.63;;;9.60;99.90;;;;;;6203652;28;20144;-81
2021/12/29 04:34:21;;;;;;;9.27;2.60;;;9.10;99.90;;;;;;6229822;28;20024;-81
2021/12/29 04:37:22;;;;;;;6.65;2.25;;;;;;;;;;6234345;28;20071;-81
2021/12/29 04:40:23;;;;;;;7.70;2.42;;;;;;;;;;6214615;28;20395;-81
2021/12/29 04:43:25;;;;;;;7.95;2.55;;;9.30;99.90;;;;;;6216620;28;20084;-81
2021/12/29 04:46:38;;;;;;;5.07;2.53;;;;;;;;;;6213903;28;20063;-81
2021/12/29 04:49:41;;;;;;;8.25;2.75;;;;;;;;;;6229020;28;20319;-81
2021/12/29 04:52:42;;;;;;;8.32;2.65;;;;;;;;;;6227564;28;20021;-81
2021/12/29 04:55:45;;;;;;;5.75;2.30;;;;;;;;;;6227349;28;20159;-81
2021/12/29 04:58:46;;;;;;;6.50;2.63;;;9.60;99.90;;;;;;6227558;28;20442;-81
2021/12/29 05:01:47;;;;;;;12.77;3.05;;;;;;;;;;6198778;28;20028;-81
2021/12/29 05:04:57;;;;;;;8.77;2.90;;;;;;;;;;6236725;28;20056;-81
2021/12/29 05:11:20;;;;;;;8.70;2.60;;;9.10;99.90;;;;;;6247439;28;20056;-80
2021/12/29 05:14:20;;;;;;;6.45;2.70;;;;;;;;;;6250857;28;20166;-79
2021/12/29 05:17:21;;;;;;;6.75;2.63;;;;;;;;;;6231572;28;20025;-79
2021/12/29 05:20:22;;;;;;;9.63;3.15;;;;;;;;;;6244297;28;20037;-78
2021/12/29 05:23:23;;;;;;;8.15;2.75;;;9.40;99.90;;;;;;6226483;28;20396;-78
2021/12/29 05:26:24;;;;;;;9.30;3.13;;;;;;;;;;6194158;28;20057;-79
2021/12/29 05:29:25;;;;;;;10.20;2.72;;;8.90;99.90;;;;;;6243987;28;20064;-79
2021/12/29 05:32:27;;;;;;;9.15;3.00;;;9.30;99.90;;;;;;6193927;28;20036;-78
2021/12/29 05:35:28;;;;;;;10.15;3.67;;;9.30;99.90;;;;;;6210391;28;20021;-79
2021/12/29 05:38:29;;;;;;;8.75;2.95;;;9.60;99.90;;;;;;6208512;28;20095;-77
2021/12/29 05:41:29;;;;;;;11.30;2.97;;;9.40;99.90;;;;;;6210172;28;20041;-79
2021/12/29 05:44:30;;;;;;;11.73;3.13;;;9.30;99.90;;;;;;6209436;28;20041;-78
2021/12/29 05:47:30;;;;;;;11.90;3.38;;;9.50;99.90;;;;;;6209989;28;20033;-78
2021/12/29 05:50:31;;;;;;;15.13;3.92;;;9.20;99.90;;;;;;6193489;28;20083;-78
2021/12/29 05:53:32;;;;;;;12.50;3.05;;;9.30;99.90;;;;;;6225865;28;20113;-79
2021/12/29 05:56:32;;;;;;;14.20;3.05;;;9.30;99.90;;;;;;6225907;28;20025;-79
2021/12/29 05:59:33;;;;;;;12.50;3.40;;;9.30;99.90;;;;;;6246990;28;20467;-78
2021/12/29 06:02:34;;;;;;;15.45;3.83;;;9.30;99.90;;;;;;6232884;28;20116;-79
2021/12/29 06:05:34;;;;;;;11.85;3.05;;;9.30;99.90;;;;;;6249607;28;20025;-78
2021/12/29 06:08:35;;;;;;;12.10;2.75;;;9.30;99.90;;;;;;6232937;28;20081;-78
2021/12/29 06:11:36;;;;;;;6.88;2.88;;;9.30;99.90;;;;;;6210349;28;20072;-78
2021/12/29 06:14:36;;;;;;;14.10;2.85;;;9.30;99.90;;;;;;6225845;28;20407;-79
2021/12/29 06:17:37;;;;;;;9.63;3.08;;;9.30;99.90;;;;;;6225540;28;20112;-79
2021/12/29 06:20:38;;;;;;;8.77;2.70;;;9.30;99.90;;;;;;6223234;28;20041;-78
2021/12/29 06:23:39;;;;;;;12.90;3.00;;;9.30;99.90;;;;;;6232812;28;20029;-78
2021/12/29 06:26:39;;;;;;;12.85;3.50;;;9.30;99.90;;;;;;6249612;28;20029;-79
2021/12/29 06:29:40;;;;;;;11.05;3.05;;;9.30;99.90;;;;;;6246635;28;20191;-79
2021/12/29 06:32:41;;;;;;;13.73;3.40;;;9.30;99.90;;;;;;6244100;28;20029;-79
2021/12/29 06:35:41;;;;;;;15.98;4.15;;;9.30;99.90;;;;;;6216200;28;20097;-79
2021/12/29 06:38:42;;;;;;;14.13;3.38;;;9.30;99.90;;;;;;6192989;28;20060;-80
2021/12/29 06:41:43;;;;;;;13.27;3.13;;;9.30;99.90;;;;;;6242936;28;20034;-78
2021/12/29 06:44:44;;;;;;;12.82;3.55;;;9.20;99.90;;;;;;6192698;28;20116;-79
2021/12/29 06:47:45;;;;;;;13.35;3.63;;;9.50;99.90;;;;;;6213898;28;20061;-83
2021/12/29 06:50:45;;;;;;;13.90;3.95;;;9.20;99.90;;;;;;6194256;28;20164;-79
2021/12/29 06:53:46;;;;;;;9.38;3.05;;;9.60;99.90;;;;;;6221300;28;20022;-79
2021/12/29 06:56:46;;;;;;;9.50;3.10;;;10.20;99.90;;;;;;6237847;28;20427;-80
2021/12/29 06:59:47;;;;;;;13.25;3.25;;;9.70;99.90;;;;;;6230103;28;20415;-85
2021/12/29 07:02:47;;;;;;;9.02;2.90;;;9.80;99.90;;;;;;6205644;28;20038;-83
2021/12/29 07:05:48;;;;;;;10.65;3.15;;;9.90;99.90;;;;;;6220093;28;20032;-83
2021/12/29 07:08:49;;;;;;;9.73;2.92;;;10.10;99.90;;;;;;6209458;28;20036;-84
2021/12/29 07:11:50;;;;;;;10.45;2.70;;;9.50;99.90;;;;;;6206895;28;20037;-83
2021/12/29 07:14:50;;;;;;;8.32;2.70;;;9.60;99.90;;;;;;6224769;28;20063;-85
2021/12/29 07:17:51;;;;;;;8.00;2.90;;;;;;;;;;6211342;28;20558;-82
2021/12/29 07:20:52;;;;;;;11.05;3.10;;;9.50;99.90;;;;;;6222975;28;20033;-83
2021/12/29 07:23:54;;;;;;;12.98;3.30;;;9.50;99.90;;;;;;6199088;28;20052;-82
2021/12/29 07:26:55;;;;;;;13.77;3.90;;;9.60;99.90;;;;;;6200123;28;20037;-85
2021/12/29 07:29:56;;;;;;;14.43;4.32;;;9.70;99.90;;;;;;6211737;28;20495;-85
2021/12/29 07:32:57;;;;;;;12.85;3.97;;;9.60;99.90;;;;;;6198541;28;20037;-81
2021/12/29 07:35:57;;;;;;;13.55;3.50;;;9.80;99.90;;;;;;6202272;28;20029;-81
2021/12/29 07:38:58;;;;;;;10.10;3.40;;;9.60;99.90;;;;;;6235291;28;20407;-82
2021/12/29 07:41:59;;;;;;;13.13;3.63;;;9.40;99.90;;;;;;6194465;28;20524;-85
2021/12/29 07:45:03;;;;;;;10.60;3.40;;;9.70;99.90;;;;;;6231626;28;20050;-80
2021/12/29 07:48:05;;;;;;;8.98;3.08;;;;;;;;;;6196612;28;20033;-80
2021/12/29 07:51:06;;;;;;;12.02;3.28;;;;;;;;;;6218935;28;20049;-79
2021/12/29 07:54:07;;;;;;;12.45;3.53;;;9.60;99.90;;;;;;6229125;28;20129;-79
2021/12/29 07:57:08;;;;;;;9.75;2.92;;;;;;;;;;6212076;28;20492;-81
2021/12/29 08:00:09;;;;;;;12.38;3.58;;;9.70;99.90;;;;;;6234873;28;20528;-81
2021/12/29 08:03:11;;;;;;;10.35;3.42;;;9.70;99.90;;;;;;6212112;28;20369;-80
2021/12/29 08:06:14;;;;;;;17.15;4.05;;;9.90;99.90;;;;;;6208987;28;20048;-80
2021/12/29 08:09:15;;;;;;;11.27;3.38;;;9.90;99.90;;;;;;6209497;28;20072;-81
2021/12/29 08:12:15;;;;;;;13.63;3.70;;;9.70;99.90;;;;;;6256761;28;20056;-82
2021/12/29 08:15:16;;;;;;;15.25;3.53;;;9.70;99.90;;;;;;6212604;28;20033;-80
2021/12/29 08:18:17;;;;;;;11.40;3.88;;;9.70;99.90;;;;;;6220069;28;20036;-79
2021/12/29 08:21:17;;;;;;;13.25;3.17;;;9.80;99.90;;;;;;6249773;28;20449;-81
2021/12/29 08:24:18;;;;;;;11.90;3.63;;;9.90;99.90;;;;;;6200106;28;20111;-81
2021/12/29 08:27:18;;;;;;;14.73;3.95;;;9.80;99.90;;;;;;6200719;28;20025;-81
2021/12/29 08:30:19;;;;;;;12.85;3.78;;;9.80;99.90;;;;;;6194798;28;20043;-80
2021/12/29 08:33:20;;;;;;;12.18;3.47;;;10.00;99.90;;;;;;6237159;28;20120;-82
2021/12/29 08:36:20;;;;;;;11.63;2.85;;;9.90;99.90;;;;;;6200908;28;20069;-80
2021/12/29 08:39:21;;;;;;;11.27;3.58;;;9.90;99.90;;;;;;6210007;28;20044;-80
2021/12/29 08:42:25;;;;;;;14.80;3.30;;;9.90;99.90;;;;;;6212805;28;20469;-80
2021/12/29 08:45:26;;;;;;;13.27;3.28;;;9.90;99.90;;;;;;6204707;28;20396;-80
2021/12/29 08:48:27;;;;;;;10.63;3.20;;;9.90;99.90;;;;;;6259807;28;20033;-80
2021/12/29 08:51:27;;;;;;;9.63;2.40;;;10.10;99.90;;;;;;6240284;28;20148;-82
2021/12/29 08:54:28;;;;;;;11.77;4.60;;;10.00;99.90;;;;;;6216122;28;20091;-81
2021/12/29 08:57:28;;;;;;;36.03;5.07;;;10.20;99.90;;;;;;6237225;28;20036;-80
2021/12/29 09:00:29;;;;;;;32.75;4.10;;;10.20;99.90;;;;;;6245934;28;20057;-80
2021/12/29 09:03:30;;;;;;;15.85;3.08;;;10.40;99.90;;;;;;6234526;28;20463;-80
2021/12/29 09:06:30;;;;;;;13.45;3.58;;;10.90;99.90;;;;;;6220322;28;20030;-80
2021/12/29 09:09:31;;;;;;;31.08;4.13;;;10.80;99.90;;;;;;6253001;28;20033;-81
2021/12/29 09:12:32;;;;;;;14.25;3.65;;;10.70;99.90;;;;;;6212744;28;20032;-80
2021/12/29 09:15:32;;;;;;;7.00;2.92;;;10.80;99.90;;;;;;6231848;28;20029;-81
2021/12/29 09:18:34;;;;;;;8.27;2.80;;;10.70;99.90;;;;;;6209973;28;20449;-80
2021/12/29 09:21:34;;;;;;;6.97;3.47;;;10.60;99.90;;;;;;6194145;28;20034;-81
2021/12/29 09:24:35;;;;;;;5.03;2.85;;;10.60;99.90;;;;;;6210188;28;20394;-81
2021/12/29 09:27:35;;;;;;;6.00;2.53;;;10.50;99.90;;;;;;6204420;28;20037;-80
2021/12/29 09:30:37;;;;;;;5.30;2.30;;;10.50;99.90;;;;;;6233510;28;20491;-81
2021/12/29 09:33:38;;;;;;;4.90;2.40;;;10.30;99.90;;;;;;6195087;28;20035;-81
2021/12/29 09:36:39;;;;;;;3.83;2.10;;;10.30;99.90;;;;;;6209681;28;20049;-86
2021/12/29 09:39:39;;;;;;;13.45;2.60;;;10.20;99.90;;;;;;6217457;28;20072;-81
2021/12/29 09:42:40;;;;;;;23.10;3.28;;;10.30;99.90;;;;;;6238626;28;20025;-81
2021/12/29 09:45:41;;;;;;;8.98;2.13;;;10.40;99.90;;;;;;6221840;28;20061;-81
2021/12/29 09:48:42;;;;;;;12.60;3.10;;;10.40;99.90;;;;;;6220332;28;20577;-82
2021/12/29 09:51:43;;;;;;;5.60;2.67;;;10.30;99.90;;;;;;6214348;28;20048;-82
2021/12/29 09:54:44;;;;;;;4.97;1.88;;;10.30;99.90;;;;;;6226331;28;20428;-82
2021/12/29 09:57:46;;;;;;;2.03;1.80;;;10.30;99.90;;;;;;6210273;28;20132;-81
2021/12/29 10:00:50;;;;;;;2.67;1.80;;;10.20;99.90;;;;;;6213071;28;20398;-82
2021/12/29 10:03:51;;;;;;;3.22;1.40;;;10.20;99.90;;;;;;6197305;28;20037;-81
2021/12/29 10:06:51;;;;;;;4.00;2.08;;;10.10;99.90;;;;;;6217512;28;20033;-82
2021/12/29 10:09:52;;;;;;;2.70;1.45;;;10.30;99.90;;;;;;6225761;28;20041;-82
2021/12/29 10:12:53;;;;;;;4.85;1.50;;;9.90;99.90;;;;;;6233605;28;20581;-81
2021/12/29 10:15:59;;;;;;;4.00;1.70;;;9.90;99.90;;;;;;6234683;28;20064;-83
2021/12/29 10:19:12;;;;;;;4.97;2.15;;;9.70;99.90;;;;;;6195651;28;20064;-82
2021/12/29 10:22:20;;;;;;;24.80;16.23;;;9.90;99.90;;;;;;6211356;28;20080;-81
2021/12/29 10:25:24;;;;;;;19.02;13.23;;;;;;;;;;6234247;28;20131;-84
2021/12/29 10:28:27;;;;;;;8.40;3.45;;;9.60;99.90;;;;;;6219453;28;20033;-82
2021/12/29 10:31:29;;;;;;;5.63;3.30;;;9.80;99.90;;;;;;6216499;28;20045;-86
2021/12/29 10:34:31;;;;;;;3.80;2.50;;;9.80;99.90;;;;;;6201379;28;20029;-80
2021/12/29 10:37:31;;;;;;;6.90;3.97;;;10.70;99.90;;;;;;6220864;28;20132;-81
2021/12/29 10:40:32;;;;;;;4.20;3.00;;;9.60;99.90;;;;;;6226475;28;20025;-79
2021/12/29 10:43:32;;;;;;;27.60;24.70;;;9.60;99.90;;;;;;6237946;28;20685;-80
2021/12/29 10:46:33;;;;;;;9.52;6.30;;;9.50;99.90;;;;;;6222709;28;20013;-82
2021/12/29 10:49:34;;;;;;;4.40;2.30;;;9.60;99.90;;;;;;6235563;28;20031;-82
2021/12/29 10:52:38;;;;;;;7.95;3.47;;;9.40;99.90;;;;;;6234882;28;20028;-80
2021/12/29 10:55:39;;;;;;;11.80;5.35;;;9.40;99.90;;;;;;6235706;28;20021;-79
2021/12/29 10:58:40;;;;;;;34.70;14.75;;;9.10;99.90;;;;;;6213467;28;20061;-80
2021/12/29 11:01:40;;;;;;;6.60;4.15;;;9.00;99.90;;;;;;6231975;28;20052;-79
2021/12/29 11:04:41;;;;;;;3.42;2.00;;;9.00;99.90;;;;;;6232915;28;20057;-79
2021/12/29 11:07:43;;;;;;;8.38;5.68;;;8.90;99.90;;;;;;6219390;28;20083;-79
2021/12/29 11:10:44;;;;;;;5.82;3.75;;;8.90;99.90;;;;;;6230008;28;20040;-79
2021/12/29 11:13:45;;;;;;;4.82;2.47;;;9.20;99.90;;;;;;6219508;28;20059;-80
2021/12/29 11:16:46;;;;;;;4.07;2.28;;;9.00;99.90;;;;;;6214245;28;20022;-79
2021/12/29 11:19:51;;;;;;;3.85;1.85;;;9.00;99.90;;;;;;6215164;28;20034;-80
2021/12/29 11:22:52;;;;;;;8.15;2.30;;;9.00;99.90;;;;;;6232346;28;20034;-79
2021/12/29 11:25:53;;;;;;;3.47;2.13;;;9.00;99.90;;;;;;6212997;28;20026;-80
2021/12/29 11:28:53;;;;;;;5.40;2.13;;;9.00;99.90;;;;;;6252187;28;20371;-79
2021/12/29 11:32:02;;;;;;;6.10;2.75;;;9.00;99.90;;;;;;6199524;28;20052;-80
2021/12/29 11:35:03;;;;;;;4.00;2.42;;;8.90;99.90;;;;;;6216294;28;20064;-79
2021/12/29 11:38:04;;;;;;;5.28;2.63;;;9.80;99.90;;;;;;6243946;28;20202;-79
2021/12/29 11:41:05;;;;;;;5.20;2.50;;;9.00;99.90;;;;;;6235881;28;20028;-80
2021/12/29 11:44:06;;;;;;;6.75;3.03;;;9.10;99.90;;;;;;6219686;28;20053;-80
2021/12/29 11:47:07;;;;;;;4.38;2.90;;;;;;;;;;6232841;28;20026;-80
2021/12/29 11:50:09;;;;;;;4.63;3.20;;;9.20;99.90;;;;;;6224936;28;20046;-81
2021/12/29 11:53:10;;;;;;;;;;;9.10;99.90;;;;;;6204846;28;20617;-81
2021/12/29 11:56:19;;;;;;;4.80;3.25;;;9.10;99.90;;;;;;6221973;28;19917;-79
2021/12/29 11:59:28;;;;;;;4.50;2.92;;;9.10;99.90;;;;;;6196474;28;20035;-80
2021/12/29 12:02:29;;;;;;;6.20;2.90;;;9.10;99.90;;;;;;6191516;28;20054;-79
2021/12/29 12:05:36;;;;;;;3.45;2.35;;;9.10;99.90;;;;;;6220380;28;20030;-78
2021/12/29 12:08:38;;;;;;;3.50;2.80;;;9.10;99.90;;;;;;6220360;28;20058;-79
2021/12/29 12:11:53;;;;;;;16.67;14.98;;;9.30;99.90;;;;;;6192194;28;20041;-80
2021/12/29 12:14:53;;;;;;;6.85;3.25;;;9.10;99.90;;;;;;6200366;28;20038;-79
2021/12/29 12:17:54;;;;;;;8.90;7.95;;;9.10;99.90;;;;;;6223519;28;20036;-79
2021/12/29 12:20:55;;;;;;;4.82;4.28;;;9.10;99.90;;;;;;6214005;28;20032;-78
2021/12/29 12:24:13;;;;;;;5.03;3.25;;;9.10;99.90;;;;;;6232688;28;20041;-80
2021/12/29 12:27:16;;;;;;;3.75;2.30;;;8.40;99.90;;;;;;6223970;28;20042;-78
2021/12/29 12:30:24;;;;;;;9.13;8.23;;;9.10;99.90;;;;;;6226998;28;20062;-78
2021/12/29 12:33:29;;;;;;;9.05;7.47;;;9.90;99.90;;;;;;6201109;28;20026;-78
2021/12/29 12:36:33;;;;;;;9.75;5.65;;;9.10;99.90;;;;;;6221899;28;20407;-79
2021/12/29 12:39:36;;;;;;;6.97;4.05;;;9.10;99.90;;;;;;6235762;28;20079;-78
2021/12/29 12:42:40;;;;;;;2.80;2.20;;;9.10;99.90;;;;;;6230718;28;20029;-78
2021/12/29 12:45:46;;;;;;;4.05;2.25;;;9.10;99.90;;;;;;6234108;28;20480;-78
2021/12/29 12:48:46;;;;;;;25.45;17.67;;;9.20;99.90;;;;;;6216024;28;20368;-79
2021/12/29 12:52:01;;;;;;;10.50;6.47;;;9.10;99.90;;;;;;6233307;28;20083;-79
2021/12/29 12:55:06;;;;;;;7.82;4.38;;;9.00;99.90;;;;;;6215839;28;20109;-78
2021/12/29 12:58:11;;;;;;;10.45;5.68;;;9.10;99.90;;;;;;6217702;28;20036;-79
2021/12/29 13:01:17;;;;;;;3.67;3.00;;;9.10;99.90;;;;;;6221880;28;20064;-79
2021/12/29 13:04:18;;;;;;;4.25;2.67;;;;;;;;;;6216431;28;20072;-77
2021/12/29 13:07:25;;;;;;;5.47;2.95;;;9.00;99.90;;;;;;6230815;28;20112;-78
2021/12/29 13:10:27;;;;;;;3.33;2.08;;;9.00;99.90;;;;;;6253156;28;20049;-77
2021/12/29 13:13:32;;;;;;;3.22;2.40;;;9.00;99.90;;;;;;6241280;28;20033;-77
2021/12/29 13:16:32;;;;;;;2.88;2.17;;;9.00;99.90;;;;;;6223325;28;20118;-78
2021/12/29 13:19:36;;;;;;;2.60;2.25;;;9.40;99.90;;;;;;6237301;28;20041;-79
2021/12/29 13:22:39;;;;;;;13.30;8.05;;;9.00;99.90;;;;;;6239122;28;20041;-79
2021/12/29 13:25:43;;;;;;;4.82;3.63;;;9.10;99.90;;;;;;6249301;28;20057;-79
2021/12/29 13:28:50;;;;;;;3.70;2.47;;;9.10;99.90;;;;;;6238890;28;20385;-79
2021/12/29 13:31:54;;;;;;;7.25;5.72;;;9.20;99.90;;;;;;6221181;28;20613;-79
2021/12/29 13:35:11;;;;;;;3.90;2.63;;;9.10;99.90;;;;;;6201250;28;20034;-77
2021/12/29 13:38:13;;;;;;;6.10;4.22;;;9.10;99.90;;;;;;6226507;28;20411;-80
2021/12/29 13:41:23;;;;;;;5.93;5.32;;;9.10;99.90;;;;;;6229523;28;20147;-78
2021/12/29 13:44:24;;;;;;;4.47;3.30;;;9.10;99.90;;;;;;6225706;28;20422;-78
2021/12/29 13:47:24;;;;;;;3.38;2.78;;;9.10;99.90;;;;;;6211188;28;20037;-78
2021/12/29 13:50:25;;;;;;;8.25;2.90;;;9.10;99.90;;;;;;6213038;28;20037;-78
2021/12/29 13:53:25;;;;;;;4.13;3.47;;;6.90;99.90;;;;;;6245304;28;20419;-78
2021/12/29 13:56:31;;;;;;;4.85;3.45;;;9.20;99.90;;;;;;6243594;28;20083;-80
2021/12/29 13:59:33;;;;;;;6.60;4.20;;;9.10;99.90;;;;;;6233356;28;20120;-78
2021/12/29 14:02:34;;;;;;;4.43;2.70;;;9.40;99.90;;;;;;6221797;28;20025;-80
2021/12/29 14:05:45;;;;;;;4.03;3.22;;;9.60;99.90;;;;;;6243380;28;20041;-80
2021/12/29 14:08:45;;;;;;;3.38;3.05;;;9.10;99.90;;;;;;6214971;28;20026;-81
2021/12/29 14:11:46;;;;;;;5.25;3.80;;;9.10;99.90;;;;;;6197629;28;20044;-83
2021/12/29 14:14:47;;;;;;;4.10;3.70;;;9.20;99.90;;;;;;6195040;28;20037;-79
2021/12/29 14:17:52;;;;;;;5.47;4.05;;;9.10;99.90;;;;;;6216050;28;20814;-79
2021/12/29 14:20:54;;;;;;;5.28;4.05;;;9.20;99.90;;;;;;6217126;28;20480;-80
2021/12/29 14:23:59;;;;;;;5.03;3.10;;;9.50;99.90;;;;;;6199292;28;20036;-81
2021/12/29 14:27:01;;;;;;;3.97;2.63;;;9.20;99.90;;;;;;6195804;28;20034;-81
2021/12/29 14:30:16;;;;;;;5.15;3.00;;;9.20;99.90;;;;;;6226100;28;20033;-80
2021/12/29 14:33:16;;;;;;;3.63;2.50;;;9.30;99.90;;;;;;6226546;28;20038;-79
2021/12/29 14:36:27;;;;;;;6.50;4.47;;;9.10;99.90;;;;;;6225272;28;20052;-80
2021/12/29 14:39:28;;;;;;;11.43;6.30;;;9.30;99.90;;;;;;6209454;28;20124;-79
2021/12/29 14:42:36;;;;;;;12.38;7.90;;;9.40;99.90;;;;;;6194636;28;20026;-80
2021/12/29 14:45:36;;;;;;;13.95;8.82;;;9.40;99.90;;;;;;6210896;28;20068;-80
2021/12/29 14:48:37;;;;;;;12.35;6.93;;;9.40;99.90;;;;;;6209029;28;20037;-79
2021/12/29 14:51:48;;;;;;;10.40;5.90;;;9.70;99.90;;;;;;6244157;28;20045;-81
2021/12/29 14:54:53;;;;;;;4.75;3.50;;;9.50;99.90;;;;;;6210623;28;20029;-84
2021/12/29 14:57:54;;;;;;;5.68;4.70;;;;;;;;;;6217888;28;20591;-83
2021/12/29 15:01:04;;;;;;;5.00;3.58;;;9.80;99.90;;;;;;6227217;28;20033;-79
2021/12/29 15:04:05;;;;;;;4.53;3.50;;;9.70;99.90;;;;;;6209810;28;20037;-81
2021/12/29 15:07:20;;;;;;;5.18;3.85;;;9.70;99.90;;;;;;6216592;28;20273;-85
2021/12/29 15:10:30;;;;;;;5.80;3.90;;;9.80;99.90;;;;;;6194224;28;20124;-80
2021/12/29 15:13:33;;;;;;;5.72;3.60;;;9.90;99.90;;;;;;6231430;28;20053;-80
2021/12/29 15:16:34;;;;;;;3.67;3.00;;;10.00;99.90;;;;;;6217508;28;20049;-80
2021/12/29 15:19:37;;;;;;;4.35;3.83;;;10.00;99.90;;;;;;6207030;28;20036;-80
2021/12/29 15:22:38;;;;;;;9.35;7.28;;;9.80;99.90;;;;;;6198685;28;20030;-80
2021/12/29 15:25:39;;;;;;;11.50;9.55;;;10.00;99.90;;;;;;6215077;28;20116;-79
2021/12/29 15:28:39;;;;;;;12.13;7.82;;;9.70;99.90;;;;;;6212619;28;20033;-80
2021/12/29 15:31:40;;;;;;;23.30;13.95;;;9.70;99.90;;;;;;6214710;28;21045;-79
2021/12/29 15:34:42;;;;;;;36.65;20.05;;;9.80;99.90;;;;;;6215539;28;20028;-81
2021/12/29 15:37:43;;;;;;;21.58;17.15;;;9.80;99.90;;;;;;6227446;28;20126;-83
2021/12/29 15:40:45;;;;;;;39.50;28.42;;;9.80;99.90;;;;;;6201156;28;20474;-83
2021/12/29 15:43:45;;;;;;;28.08;22.67;;;9.80;99.90;;;;;;6204304;28;20041;-82
2021/12/29 15:46:46;;;;;;;9.55;7.95;;;9.80;99.90;;;;;;6229105;28;20431;-80
2021/12/29 15:49:46;;;;;;;6.97;5.78;;;10.00;99.90;;;;;;6211049;28;20077;-80
2021/12/29 15:52:49;;;;;;;7.03;6.22;;;10.00;99.90;;;;;;6212304;28;20037;-81
2021/12/29 15:55:50;;;;;;;8.90;6.55;;;10.00;99.90;;;;;;6214161;28;20391;-82
2021/12/29 15:58:52;;;;;;;8.25;6.88;;;10.10;99.90;;;;;;6194252;28;20059;-81
2021/12/29 16:01:52;;;;;;;9.87;8.40;;;10.10;99.90;;;;;;6212152;28;20399;-82
2021/12/29 16:04:53;;;;;;;8.82;7.47;;;10.00;99.90;;;;;;6210896;28;20032;-80
2021/12/29 16:07:54;;;;;;;12.13;10.40;;;10.10;99.90;;;;;;6197346;28;20025;-81